createdAt,value
2023-04-03T00:00:43.752Z,6.10
2023-04-03T00:03:22.526Z,11.90
2023-04-03T00:05:54.850Z,8.90
2023-04-03T00:08:27.277Z,7.30
2023-04-03T00:10:59.493Z,7.00
2023-04-03T00:13:31.889Z,12.00
2023-04-03T00:16:04.806Z,4.20
2023-04-03T00:18:37.365Z,18.00
2023-04-03T00:21:11.898Z,6.00
2023-04-03T00:23:44.213Z,3.50
2023-04-03T00:26:16.395Z,5.30
2023-04-03T00:28:48.672Z,4.90
2023-04-03T00:31:20.997Z,4.00
2023-04-03T00:33:53.220Z,8.60
2023-04-03T00:36:25.676Z,4.50
2023-04-03T00:38:57.953Z,4.20
2023-04-03T00:41:30.173Z,5.70
2023-04-03T00:44:02.452Z,2.80
2023-04-03T00:46:34.807Z,2.50
2023-04-03T00:49:07.074Z,2.10
2023-04-03T00:51:39.376Z,3.60
2023-04-03T00:54:11.990Z,3.80
2023-04-03T00:56:45.353Z,3.70
2023-04-03T00:59:24.187Z,3.60
2023-04-03T01:01:58.120Z,3.90
2023-04-03T01:04:35.920Z,5.30
2023-04-03T01:07:12.586Z,5.00
2023-04-03T01:09:46.793Z,4.30
2023-04-03T01:12:21.646Z,5.40
2023-04-03T01:14:55.745Z,3.70
2023-04-03T01:17:36.532Z,3.80
2023-04-03T01:20:47.329Z,3.00
2023-04-03T01:23:36.403Z,2.80
2023-04-03T01:26:10.114Z,5.70
2023-04-03T01:28:42.609Z,3.20
2023-04-03T01:31:22.419Z,4.90
2023-04-03T01:33:55.486Z,5.90
2023-04-03T01:36:31.122Z,5.50
2023-04-03T01:39:03.610Z,5.50
2023-04-03T01:41:35.913Z,5.20
2023-04-03T01:44:15.822Z,3.90
2023-04-03T01:46:48.611Z,6.20
2023-04-03T01:49:20.958Z,5.10
2023-04-03T01:51:53.292Z,3.70
2023-04-03T01:54:25.564Z,6.70
2023-04-03T01:56:57.904Z,13.80
2023-04-03T01:59:30.442Z,8.50
2023-04-03T02:02:02.761Z,3.70
2023-04-03T02:04:35.090Z,2.60
2023-04-03T02:07:07.362Z,2.00
2023-04-03T02:09:39.559Z,2.40
2023-04-03T02:12:12.012Z,3.10
2023-04-03T02:14:44.396Z,3.00
2023-04-03T02:17:17.619Z,2.00
2023-04-03T02:19:49.931Z,3.50
2023-04-03T02:22:22.407Z,5.10
2023-04-03T02:24:54.602Z,3.90
2023-04-03T02:27:26.971Z,2.90
2023-04-03T02:29:59.359Z,9.30
2023-04-03T02:32:31.849Z,4.00
2023-04-03T02:35:04.329Z,4.10
2023-04-03T02:37:37.889Z,3.20
2023-04-03T02:40:13.043Z,4.30
2023-04-03T02:42:45.286Z,3.80
2023-04-03T02:45:18.011Z,9.30
2023-04-03T02:47:50.347Z,4.00
2023-04-03T02:50:22.652Z,3.00
2023-04-03T02:52:54.879Z,2.50
2023-04-03T02:55:27.454Z,3.30
2023-04-03T02:58:00.553Z,3.40
2023-04-03T03:00:33.218Z,3.10
2023-04-03T03:03:05.994Z,2.50
2023-04-03T03:05:38.551Z,2.60
2023-04-03T03:08:11.833Z,3.20
2023-04-03T03:10:44.099Z,4.70
2023-04-03T03:13:16.633Z,4.70
2023-04-03T03:15:48.985Z,4.60
2023-04-03T03:18:21.394Z,3.40
2023-04-03T03:20:57.007Z,3.50
2023-04-03T03:23:31.685Z,4.40
2023-04-03T03:26:06.370Z,4.50
2023-04-03T03:28:41.512Z,2.90
2023-04-03T03:31:14.606Z,3.00
2023-04-03T03:33:46.966Z,2.70
2023-04-03T03:36:19.203Z,5.30
2023-04-03T03:38:51.438Z,3.40
2023-04-03T03:41:23.948Z,2.90
2023-04-03T03:43:56.419Z,3.10
2023-04-03T03:46:29.406Z,4.40
2023-04-03T03:49:01.770Z,3.00
2023-04-03T03:51:34.008Z,3.10
2023-04-03T03:54:06.432Z,2.40
2023-04-03T03:56:38.839Z,2.70
2023-04-03T03:59:13.348Z,7.20
2023-04-03T04:01:46.044Z,5.90
2023-04-03T04:04:18.464Z,5.50
2023-04-03T04:06:51.644Z,11.60
2023-04-03T04:09:24.320Z,7.90
2023-04-03T04:11:56.676Z,8.40
2023-04-03T04:14:28.904Z,5.80
2023-04-03T04:17:03.515Z,14.20
2023-04-03T04:19:36.322Z,11.10
2023-04-03T04:22:08.630Z,19.20
2023-04-03T04:24:41.380Z,17.20
2023-04-03T04:27:13.877Z,19.20
2023-04-03T04:29:46.218Z,18.50
2023-04-03T04:32:18.587Z,18.80
2023-04-03T04:34:51.209Z,15.00
2023-04-03T04:37:23.606Z,24.90
2023-04-03T04:39:56.038Z,112.20
2023-04-03T04:42:28.619Z,48.10
2023-04-03T04:45:00.873Z,25.10
2023-04-03T04:47:33.539Z,18.30
2023-04-03T04:50:06.621Z,14.30
2023-04-03T04:52:39.361Z,6.80
2023-04-03T04:55:12.324Z,5.50
2023-04-03T04:57:44.642Z,4.30
2023-04-03T05:00:19.884Z,11.10
2023-04-03T05:02:52.552Z,11.70
2023-04-03T05:05:25.185Z,8.30
2023-04-03T05:07:57.909Z,15.90
2023-04-03T05:10:30.859Z,21.90
2023-04-03T05:13:03.058Z,21.50
2023-04-03T05:15:35.559Z,20.00
2023-04-03T05:18:09.253Z,29.30
2023-04-03T05:20:41.786Z,19.10
2023-04-03T05:23:14.609Z,9.60
2023-04-03T05:25:48.092Z,17.10
2023-04-03T05:28:20.606Z,13.00
2023-04-03T05:30:57.897Z,9.80
2023-04-03T05:33:31.432Z,14.90
2023-04-03T05:36:08.526Z,11.10
2023-04-03T05:38:44.032Z,15.40
2023-04-03T05:41:16.911Z,10.90
2023-04-03T05:43:50.621Z,12.80
2023-04-03T05:46:23.427Z,9.60
2023-04-03T05:48:58.480Z,8.60
2023-04-03T05:51:36.545Z,8.10
2023-04-03T05:54:19.997Z,10.60
2023-04-03T05:56:53.277Z,4.20
2023-04-03T05:59:26.231Z,11.20
2023-04-03T06:01:59.144Z,6.60
2023-04-03T06:04:31.690Z,4.30
2023-04-03T06:07:04.663Z,3.20
2023-04-03T06:09:37.416Z,5.20
2023-04-03T06:12:10.879Z,5.70
2023-04-03T06:14:43.357Z,4.10
2023-04-03T06:17:16.415Z,4.30
2023-04-03T06:19:49.372Z,4.30
2023-04-03T06:22:22.368Z,17.50
2023-04-03T06:24:54.569Z,6.80
2023-04-03T06:27:26.800Z,6.90
2023-04-03T06:29:59.021Z,28.30
2023-04-03T06:32:31.356Z,7.10
2023-04-03T06:35:04.253Z,5.70
2023-04-03T06:37:36.584Z,13.70
2023-04-03T06:40:17.770Z,8.70
2023-04-03T06:42:50.350Z,9.90
2023-04-03T06:45:23.629Z,11.70
2023-04-03T06:47:56.725Z,10.50
2023-04-03T06:50:29.194Z,19.00
2023-04-03T06:53:02.053Z,10.50
2023-04-03T06:55:34.334Z,6.90
2023-04-03T06:58:06.665Z,6.90
2023-04-03T07:00:39.282Z,9.10
2023-04-03T07:03:11.775Z,17.70
2023-04-03T07:05:45.925Z,7.60
2023-04-03T07:08:18.176Z,5.80
2023-04-03T07:10:51.334Z,5.50
2023-04-03T07:13:23.568Z,4.20
2023-04-03T07:15:56.032Z,7.30
2023-04-03T07:18:28.567Z,3.80
2023-04-03T07:21:01.458Z,5.00
2023-04-03T07:23:33.898Z,3.50
2023-04-03T07:26:06.738Z,6.50
2023-04-03T07:28:41.269Z,4.60
2023-04-03T07:31:16.119Z,5.00
2023-04-03T07:36:23.220Z,8.10
2023-04-03T07:38:55.565Z,13.30
2023-04-03T07:41:27.926Z,4.40
2023-04-03T07:44:00.230Z,11.30
2023-04-03T07:46:32.574Z,13.10
2023-04-03T07:49:04.865Z,14.40
2023-04-03T07:51:37.011Z,12.90
2023-04-03T07:54:09.375Z,6.80
2023-04-03T07:56:41.763Z,15.10
2023-04-03T07:59:14.006Z,4.70
2023-04-03T08:01:46.258Z,10.20
2023-04-03T08:04:18.535Z,39.20
2023-04-03T08:06:50.804Z,12.50
2023-04-03T08:09:23.262Z,16.30
2023-04-03T08:11:55.501Z,16.00
2023-04-03T08:14:27.713Z,13.80
2023-04-03T08:17:00.076Z,6.50
2023-04-03T08:19:32.492Z,5.60
2023-04-03T08:22:06.114Z,6.30
2023-04-03T08:24:39.373Z,5.40
2023-04-03T08:27:15.511Z,5.10
2023-04-03T08:29:48.618Z,4.00
2023-04-03T08:32:21.183Z,4.50
2023-04-03T08:34:53.740Z,7.10
2023-04-03T08:37:26.557Z,10.90
2023-04-03T08:39:58.919Z,8.00
2023-04-03T08:42:44.162Z,4.60
2023-04-03T08:45:19.653Z,4.60
2023-04-03T08:47:58.570Z,4.70
2023-04-03T08:50:38.227Z,3.60
2023-04-03T08:53:16.893Z,5.40
2023-04-03T08:55:51.294Z,6.30
2023-04-03T08:58:25.453Z,5.30
2023-04-03T09:01:02.000Z,3.60
2023-04-03T09:03:36.526Z,5.00
2023-04-03T09:06:16.230Z,3.10
2023-04-03T09:08:57.807Z,2.10
2023-04-03T09:11:38.692Z,2.70
2023-04-03T09:14:23.688Z,1.90
2023-04-03T09:16:59.146Z,3.40
2023-04-03T09:19:44.140Z,4.90
2023-04-03T09:22:22.764Z,3.80
2023-04-03T09:25:01.126Z,4.90
2023-04-03T09:27:33.474Z,3.50
2023-04-03T09:30:08.112Z,3.00
2023-04-03T09:32:40.297Z,2.00
2023-04-03T09:35:27.379Z,2.70
2023-04-03T09:38:23.657Z,5.20
2023-04-03T09:41:08.835Z,3.50
2023-04-03T09:43:53.625Z,3.90
2023-04-03T09:46:35.079Z,4.80
2023-04-03T09:49:13.100Z,2.90
2023-04-03T09:51:46.362Z,2.00
2023-04-03T09:54:44.319Z,3.00
2023-04-03T09:57:17.426Z,2.70
2023-04-03T10:00:00.720Z,1.60
2023-04-03T10:02:38.270Z,3.10
2023-04-03T10:05:34.372Z,5.00
2023-04-03T10:08:24.627Z,7.20
2023-04-03T10:11:18.289Z,4.90
2023-04-03T10:14:00.648Z,2.80
2023-04-03T10:16:43.264Z,3.00
2023-04-03T10:19:32.250Z,1.90
2023-04-03T10:22:15.616Z,2.80
2023-04-03T10:24:55.928Z,2.40
2023-04-03T10:27:39.539Z,1.80
2023-04-03T10:30:30.994Z,3.10
2023-04-03T10:33:16.948Z,2.00
2023-04-03T10:36:02.406Z,1.90
2023-04-03T10:38:45.513Z,1.90
2023-04-03T10:41:26.288Z,2.50
2023-04-03T10:44:07.582Z,2.90
2023-04-03T10:46:44.382Z,1.60
2023-04-03T10:49:38.007Z,1.40
2023-04-03T10:52:19.289Z,2.50
2023-04-03T10:55:00.281Z,2.40
2023-04-03T10:57:33.051Z,1.80
2023-04-03T11:00:10.590Z,3.70
2023-04-03T11:02:50.626Z,2.40
2023-04-03T11:05:33.681Z,2.30
2023-04-03T11:08:13.686Z,1.60
2023-04-03T11:10:47.791Z,8.10
2023-04-03T11:13:24.436Z,10.50
2023-04-03T11:15:59.220Z,5.50
2023-04-03T11:18:39.945Z,9.00
2023-04-03T11:21:18.707Z,2.90
2023-04-03T11:23:52.365Z,3.60
2023-04-03T11:26:29.499Z,2.70
2023-04-03T11:29:08.185Z,5.30
2023-04-03T11:32:06.714Z,4.20
2023-04-03T11:34:42.817Z,3.90
2023-04-03T11:37:24.282Z,5.00
2023-04-03T11:40:01.781Z,4.40
2023-04-03T11:42:38.988Z,4.80
2023-04-03T11:45:28.895Z,3.10
2023-04-03T11:48:16.693Z,3.00
2023-04-03T11:50:55.631Z,3.20
2023-04-03T11:53:40.324Z,3.30
2023-04-03T11:56:33.960Z,4.10
2023-04-03T11:59:28.954Z,3.20
2023-04-03T12:02:01.654Z,12.50
2023-04-03T12:04:34.037Z,19.50
2023-04-03T12:07:28.741Z,14.40
2023-04-03T12:10:04.340Z,4.20
2023-04-03T12:12:42.674Z,5.30
2023-04-03T12:15:51.053Z,6.20
2023-04-03T12:18:59.699Z,6.30
2023-04-03T12:22:10.097Z,11.00
2023-04-03T12:24:43.974Z,5.90
2023-04-03T12:27:41.394Z,13.70
2023-04-03T12:30:27.578Z,11.60
2023-04-03T12:33:26.851Z,26.80
2023-04-03T12:36:10.500Z,14.50
2023-04-03T12:39:18.200Z,23.40
2023-04-03T12:42:00.660Z,13.60
2023-04-03T12:44:46.595Z,9.20
2023-04-03T12:47:34.230Z,15.30
2023-04-03T12:50:20.706Z,9.00
2023-04-03T12:52:57.210Z,23.50
2023-04-03T12:55:29.733Z,6.80
2023-04-03T12:58:18.180Z,4.90
2023-04-03T13:01:00.772Z,8.30
2023-04-03T13:03:33.867Z,4.70
2023-04-03T13:06:06.817Z,14.20
2023-04-03T13:08:39.227Z,14.00
2023-04-03T13:11:14.611Z,5.10
2023-04-03T13:13:58.380Z,13.00
2023-04-03T13:16:31.399Z,5.40
2023-04-03T13:19:03.641Z,7.60
2023-04-03T13:21:37.226Z,14.40
2023-04-03T13:24:15.198Z,23.40
2023-04-03T13:26:48.087Z,11.80
2023-04-03T13:29:30.941Z,14.40
2023-04-03T13:32:07.284Z,10.60
2023-04-03T13:34:45.857Z,9.00
2023-04-03T13:37:29.682Z,5.90
2023-04-03T13:40:06.633Z,10.90
2023-04-03T13:42:42.352Z,10.70
2023-04-03T13:45:22.012Z,9.80
2023-04-03T13:47:56.984Z,8.30
2023-04-03T13:50:30.181Z,6.40
2023-04-03T13:53:13.433Z,5.30
2023-04-03T13:56:00.239Z,5.30
2023-04-03T13:58:35.561Z,5.40
2023-04-03T14:01:19.292Z,4.50
2023-04-03T14:03:57.603Z,4.00
2023-04-03T14:06:30.990Z,6.20
2023-04-03T14:09:03.711Z,4.70
2023-04-03T14:11:37.719Z,4.30
2023-04-03T14:14:16.983Z,5.00
2023-04-03T14:16:56.611Z,3.50
2023-04-03T14:19:33.032Z,3.40
2023-04-03T14:22:18.640Z,4.90
2023-04-03T14:24:51.815Z,3.00
2023-04-03T14:27:27.888Z,4.20
2023-04-03T14:30:01.488Z,3.90
2023-04-03T14:32:33.769Z,4.40
2023-04-03T14:35:07.841Z,5.20
2023-04-03T14:37:40.267Z,3.40
2023-04-03T14:40:18.423Z,4.50
2023-04-03T14:42:51.778Z,4.80
2023-04-03T14:45:25.245Z,6.20
2023-04-03T14:47:59.622Z,2.80
2023-04-03T14:50:31.904Z,2.80
2023-04-03T14:53:04.180Z,3.80
2023-04-03T14:55:36.479Z,3.60
2023-04-03T14:58:10.700Z,3.10
2023-04-03T15:00:42.970Z,2.20
2023-04-03T15:03:19.942Z,4.30
2023-04-03T15:05:53.212Z,5.90
2023-04-03T15:08:28.262Z,9.40
2023-04-03T15:11:02.140Z,5.10
2023-04-03T15:13:34.541Z,16.50
2023-04-03T15:16:08.326Z,18.30
2023-04-03T15:18:41.472Z,42.20
2023-04-03T15:21:13.983Z,76.90
2023-04-03T15:23:46.306Z,34.50
2023-04-03T15:26:18.598Z,66.50
2023-04-03T15:28:50.861Z,31.60
2023-04-03T15:31:23.161Z,51.70
2023-04-03T15:33:55.693Z,33.00
2023-04-03T15:36:34.003Z,51.10
2023-04-03T15:39:07.734Z,81.60
2023-04-03T15:41:40.077Z,82.90
2023-04-03T15:44:13.268Z,31.80
2023-04-03T15:46:45.956Z,24.50
2023-04-03T15:49:18.430Z,16.40
2023-04-03T15:51:50.755Z,14.00
2023-04-03T15:54:25.092Z,41.50
2023-04-03T15:56:57.374Z,50.60
2023-04-03T15:59:30.155Z,21.10
2023-04-03T16:02:06.110Z,16.60
2023-04-03T16:04:38.381Z,10.20
2023-04-03T16:07:10.729Z,33.60
2023-04-03T16:09:43.025Z,15.30
2023-04-03T16:12:15.680Z,24.30
2023-04-03T16:14:47.923Z,17.90
2023-04-03T16:17:20.249Z,15.30
2023-04-03T16:19:52.469Z,20.40
2023-04-03T16:22:26.165Z,15.80
2023-04-03T16:24:58.554Z,7.60
2023-04-03T16:27:32.059Z,3.70
2023-04-03T16:30:04.524Z,5.40
2023-04-03T16:32:38.041Z,7.40
2023-04-03T16:35:12.061Z,3.80
2023-04-03T16:37:44.427Z,9.40
2023-04-03T16:40:16.856Z,7.60
2023-04-03T16:42:49.077Z,8.70
2023-04-03T16:45:21.550Z,4.50
2023-04-03T16:47:53.871Z,27.40
2023-04-03T16:50:26.310Z,20.30
2023-04-03T16:52:58.561Z,11.50
2023-04-03T16:55:30.733Z,13.90
2023-04-03T16:58:03.094Z,14.30
2023-04-03T17:00:35.532Z,22.20
2023-04-03T17:03:07.938Z,7.00
2023-04-03T17:05:40.394Z,14.60
2023-04-03T17:08:14.963Z,31.20
2023-04-03T17:10:48.326Z,29.60
2023-04-03T17:13:21.470Z,23.40
2023-04-03T17:15:53.727Z,65.30
2023-04-03T17:18:26.639Z,44.60
2023-04-03T17:20:59.114Z,50.60
2023-04-03T17:23:31.949Z,43.40
2023-04-03T17:26:04.934Z,67.60
2023-04-03T17:28:37.121Z,19.80
2023-04-03T17:31:09.676Z,20.20
2023-04-03T17:33:41.954Z,11.20
2023-04-03T17:36:14.567Z,11.30
2023-04-03T17:38:48.502Z,14.60
2023-04-03T17:41:20.929Z,14.20
2023-04-03T17:43:56.503Z,9.10
2023-04-03T17:46:30.987Z,11.70
2023-04-03T17:49:04.792Z,13.60
2023-04-03T17:51:36.997Z,14.30
2023-04-03T17:54:09.493Z,20.70
2023-04-03T17:56:47.814Z,13.40
2023-04-03T17:59:20.787Z,13.60
2023-04-03T18:01:53.471Z,14.00
2023-04-03T18:04:25.816Z,18.60
2023-04-03T18:06:58.580Z,11.20
2023-04-03T18:09:35.125Z,13.10
2023-04-03T18:12:09.845Z,29.80
2023-04-03T18:14:43.009Z,56.20
2023-04-03T18:17:15.574Z,35.70
2023-04-03T18:19:48.464Z,24.30
2023-04-03T18:22:23.928Z,15.90
2023-04-03T18:24:58.040Z,19.60
2023-04-03T18:27:30.934Z,18.40
2023-04-03T18:30:08.680Z,17.20
2023-04-03T18:32:41.337Z,13.10
2023-04-03T18:35:15.044Z,11.80
2023-04-03T18:37:47.306Z,14.60
2023-04-03T18:40:19.911Z,15.10
2023-04-03T18:42:52.307Z,15.90
2023-04-03T18:45:26.919Z,15.40
2023-04-03T18:47:59.777Z,16.60
2023-04-03T18:50:32.915Z,28.60
2023-04-03T18:53:05.254Z,19.20
2023-04-03T18:55:37.499Z,23.90
2023-04-03T18:58:09.778Z,14.30
2023-04-03T19:00:43.484Z,9.20
2023-04-03T19:03:17.072Z,14.20
2023-04-03T19:05:49.789Z,20.20
2023-04-03T19:08:22.395Z,11.20
2023-04-03T19:10:54.725Z,7.60
2023-04-03T19:13:28.240Z,12.20
2023-04-03T19:16:01.554Z,16.00
2023-04-03T19:18:33.870Z,14.10
2023-04-03T19:21:06.821Z,12.40
2023-04-03T19:23:41.458Z,10.40
2023-04-03T19:26:14.682Z,8.90
2023-04-03T19:28:50.706Z,9.90
2023-04-03T19:31:24.454Z,7.90
2023-04-03T19:33:57.354Z,8.50
2023-04-03T19:36:29.640Z,8.00
2023-04-03T19:39:01.879Z,11.40
2023-04-03T19:41:36.903Z,8.10
2023-04-03T19:46:40.824Z,12.00
2023-04-03T19:49:24.207Z,10.70
2023-04-03T19:51:56.715Z,10.80
2023-04-03T19:54:28.957Z,14.70
2023-04-03T19:57:02.040Z,34.70
2023-04-03T19:59:34.297Z,31.40
2023-04-03T20:02:06.798Z,31.30
2023-04-03T20:04:39.514Z,34.40
2023-04-03T20:07:12.793Z,202.40
2023-04-03T20:09:45.166Z,130.40
2023-04-03T20:12:17.548Z,107.70
2023-04-03T20:14:49.816Z,362.70
2023-04-03T20:17:22.087Z,372.90
2023-04-03T20:19:54.301Z,375.10
2023-04-03T20:22:26.610Z,105.00
2023-04-03T20:25:06.079Z,96.80
2023-04-03T20:27:39.723Z,58.70
2023-04-03T20:30:15.055Z,199.70
2023-04-03T20:32:48.603Z,159.00
2023-04-03T20:35:22.298Z,139.30
2023-04-03T20:37:54.708Z,97.30
2023-04-03T20:40:27.559Z,146.50
2023-04-03T20:42:59.904Z,94.40
2023-04-03T20:45:32.714Z,80.80
2023-04-03T20:48:06.010Z,115.60
2023-04-03T20:50:38.660Z,295.20
2023-04-03T20:53:11.085Z,245.40
2023-04-03T20:55:43.353Z,112.70
2023-04-03T20:58:15.562Z,79.70
2023-04-03T21:00:47.816Z,45.00
2023-04-03T21:03:20.421Z,43.50
2023-04-03T21:06:00.489Z,43.90
2023-04-03T21:09:07.963Z,25.20
2023-04-03T21:12:15.425Z,29.60
2023-04-03T21:15:22.305Z,53.10
2023-04-03T21:18:19.880Z,23.40
2023-04-03T21:20:52.131Z,18.70
2023-04-03T21:23:24.850Z,20.90
2023-04-03T21:25:57.574Z,13.10
2023-04-03T21:28:29.826Z,14.60
2023-04-03T21:31:02.158Z,11.80
2023-04-03T21:33:34.485Z,20.40
2023-04-03T21:36:07.910Z,9.70
2023-04-03T21:38:40.800Z,7.70
2023-04-03T21:41:13.050Z,6.10
2023-04-03T21:43:48.348Z,6.50
2023-04-03T21:46:20.770Z,5.90
2023-04-03T21:48:53.038Z,5.90
2023-04-03T21:51:25.400Z,6.60
2023-04-03T21:53:58.183Z,8.60
2023-04-03T21:56:31.602Z,5.20
2023-04-03T21:59:05.128Z,5.00
2023-04-03T22:01:37.590Z,4.60
2023-04-03T22:04:09.918Z,5.00
2023-04-03T22:06:42.257Z,4.60
2023-04-03T22:09:14.769Z,20.40
2023-04-03T22:11:49.134Z,9.80
2023-04-03T22:14:21.379Z,8.30
2023-04-03T22:16:54.119Z,6.80
2023-04-03T22:19:26.444Z,5.30
2023-04-03T22:21:58.640Z,6.60
2023-04-03T22:24:31.206Z,6.10
2023-04-03T22:27:03.418Z,7.80
2023-04-03T22:29:35.607Z,10.10
2023-04-03T22:32:08.339Z,10.70
2023-04-03T22:34:41.276Z,11.10
2023-04-03T22:37:13.631Z,10.30
2023-04-03T22:39:45.913Z,7.10
2023-04-03T22:42:18.234Z,7.90
2023-04-03T22:44:50.490Z,7.60
2023-04-03T22:47:23.011Z,10.10
2023-04-03T22:49:55.180Z,14.00
2023-04-03T22:52:27.398Z,27.80
2023-04-03T22:55:06.252Z,26.60
2023-04-03T22:57:48.842Z,27.50
2023-04-03T23:00:21.921Z,19.10
2023-04-03T23:02:54.224Z,22.00
2023-04-03T23:05:26.785Z,22.30
2023-04-03T23:07:59.096Z,17.60
2023-04-03T23:10:31.516Z,14.10
2023-04-03T23:13:03.786Z,14.70
2023-04-03T23:15:36.053Z,11.60
2023-04-03T23:18:08.575Z,12.30
2023-04-03T23:20:41.103Z,11.80
2023-04-03T23:23:13.622Z,9.60
2023-04-03T23:25:45.645Z,10.90
2023-04-03T23:28:18.160Z,7.40
2023-04-03T23:30:51.184Z,11.30
2023-04-03T23:33:23.360Z,10.80
2023-04-03T23:35:55.726Z,7.70
2023-04-03T23:38:28.441Z,10.40
2023-04-03T23:41:00.776Z,9.10
2023-04-03T23:43:33.195Z,7.20
2023-04-03T23:46:05.469Z,6.70
2023-04-03T23:48:38.062Z,8.60
2023-04-03T23:51:10.289Z,11.30
2023-04-03T23:53:42.528Z,10.00
2023-04-03T23:56:14.728Z,8.60
2023-04-03T23:58:46.885Z,7.30
